createdAt,value
2022-12-19T00:00:24.646Z,-1.78
2022-12-19T00:01:24.843Z,-1.84
2022-12-19T00:02:25.476Z,-1.79
2022-12-19T00:03:25.201Z,-1.84
2022-12-19T00:04:24.630Z,-1.75
2022-12-19T00:05:27.986Z,-1.86
2022-12-19T00:06:24.674Z,-1.79
2022-12-19T00:07:24.664Z,-1.84
2022-12-19T00:08:24.645Z,-1.86
2022-12-19T00:09:24.656Z,-1.79
2022-12-19T00:10:24.640Z,-1.79
2022-12-19T00:11:24.670Z,-1.81
2022-12-19T00:12:24.667Z,-1.87
2022-12-19T00:13:24.663Z,-1.82
2022-12-19T00:14:24.664Z,-1.87
2022-12-19T00:15:24.642Z,-1.87
2022-12-19T00:16:24.900Z,-1.89
2022-12-19T00:17:24.648Z,-1.86
2022-12-19T00:18:25.023Z,-1.89
2022-12-19T00:19:24.654Z,-1.75
2022-12-19T00:20:24.657Z,-1.78
2022-12-19T00:21:24.712Z,-1.84
2022-12-19T00:22:24.902Z,-1.93
2022-12-19T00:23:24.696Z,-1.97
2022-12-19T00:24:25.949Z,-1.87
2022-12-19T00:25:28.618Z,-1.76
2022-12-19T00:26:24.706Z,-1.84
2022-12-19T00:27:24.673Z,-1.84
2022-12-19T00:28:25.946Z,-1.86
2022-12-19T00:29:24.687Z,-1.86
2022-12-19T00:30:24.998Z,-1.86
2022-12-19T00:31:24.909Z,-1.87
2022-12-19T00:32:24.685Z,-1.9
2022-12-19T00:33:24.682Z,-1.84
2022-12-19T00:34:24.898Z,-1.86
2022-12-19T00:35:24.774Z,-1.9
2022-12-19T00:36:27.744Z,-1.99
2022-12-19T00:37:24.706Z,-1.89
2022-12-19T00:38:24.679Z,-1.9
2022-12-19T00:39:24.687Z,-1.96
2022-12-19T00:40:26.482Z,-1.89
2022-12-19T00:41:24.776Z,-1.89
2022-12-19T00:42:24.707Z,-1.9
2022-12-19T00:43:24.689Z,-1.92
2022-12-19T00:44:24.691Z,-1.94
2022-12-19T00:45:24.777Z,-1.9
2022-12-19T00:46:24.965Z,-1.94
2022-12-19T00:47:27.607Z,-1.92
2022-12-19T00:48:24.702Z,-1.93
2022-12-19T00:49:24.715Z,-1.93
2022-12-19T00:50:25.070Z,-1.97
2022-12-19T00:51:24.750Z,-1.97
2022-12-19T00:52:28.984Z,-1.87
2022-12-19T00:53:24.717Z,-1.86
2022-12-19T00:54:25.149Z,-2.02
2022-12-19T00:55:24.919Z,-1.9
2022-12-19T00:56:24.718Z,-1.94
2022-12-19T00:57:24.731Z,-1.9
2022-12-19T00:58:27.783Z,-1.93
2022-12-19T00:59:31.350Z,-1.96
2022-12-19T01:00:24.735Z,-1.93
2022-12-19T01:01:25.217Z,-1.92
2022-12-19T01:02:25.288Z,-1.96
2022-12-19T01:03:27.857Z,-1.97
2022-12-19T01:04:42.238Z,-1.87
2022-12-19T01:05:25.757Z,-1.96
2022-12-19T01:06:25.256Z,-2.02
2022-12-19T01:07:24.813Z,-1.92
2022-12-19T01:08:27.105Z,-1.97
2022-12-19T01:09:27.512Z,-2.08
2022-12-19T01:10:24.739Z,-1.96
2022-12-19T01:11:25.752Z,-2.02
2022-12-19T01:12:29.270Z,-1.99
2022-12-19T01:13:24.754Z,-1.97
2022-12-19T01:14:28.049Z,-1.94
2022-12-19T01:15:24.786Z,-1.94
2022-12-19T01:16:25.851Z,-1.94
2022-12-19T01:17:24.775Z,-1.93
2022-12-19T01:18:24.746Z,-1.97
2022-12-19T01:19:24.803Z,-2
2022-12-19T01:20:33.817Z,-1.94
2022-12-19T01:21:24.770Z,-2
2022-12-19T01:22:25.180Z,-2.02
2022-12-19T01:23:24.763Z,-2.07
2022-12-19T01:24:24.771Z,-2.05
2022-12-19T01:25:27.533Z,-2.04
2022-12-19T01:26:24.769Z,-1.94
2022-12-19T01:27:24.789Z,-2.05
2022-12-19T01:28:26.628Z,-1.96
2022-12-19T01:29:24.777Z,-2
2022-12-19T01:30:26.858Z,-1.9
2022-12-19T01:31:24.959Z,-1.96
2022-12-19T01:32:24.886Z,-1.84
2022-12-19T01:33:24.774Z,-1.9
2022-12-19T01:34:25.335Z,-1.87
2022-12-19T01:35:26.653Z,-1.87
2022-12-19T01:36:27.605Z,-1.81
2022-12-19T01:37:24.798Z,-1.86
2022-12-19T01:38:25.160Z,-1.93
2022-12-19T01:39:29.141Z,-1.89
2022-12-19T01:40:24.789Z,-1.97
2022-12-19T01:41:24.786Z,-1.86
2022-12-19T01:42:30.991Z,-1.99
2022-12-19T01:43:24.780Z,-1.97
2022-12-19T01:44:24.795Z,-1.94
2022-12-19T01:45:27.754Z,-1.79
2022-12-19T01:46:29.787Z,-1.9
2022-12-19T01:47:27.850Z,-1.92
2022-12-19T01:48:24.790Z,-1.96
2022-12-19T01:49:29.715Z,-1.86
2022-12-19T01:50:24.815Z,-1.97
2022-12-19T01:51:24.888Z,-2.02
2022-12-19T01:52:28.417Z,-2
2022-12-19T01:53:24.785Z,-1.84
2022-12-19T01:54:25.177Z,-1.86
2022-12-19T01:55:24.815Z,-1.84
2022-12-19T01:56:24.837Z,-1.97
2022-12-19T01:57:24.839Z,-1.82
2022-12-19T01:58:27.863Z,-1.87
2022-12-19T01:59:25.079Z,-1.87
2022-12-19T02:00:26.663Z,-1.86
2022-12-19T02:01:25.154Z,-1.96
2022-12-19T02:02:25.038Z,-1.9
2022-12-19T02:03:25.071Z,-1.86
2022-12-19T02:04:24.874Z,-1.79
2022-12-19T02:05:24.807Z,-1.75
2022-12-19T02:06:24.862Z,-1.75
2022-12-19T02:07:24.831Z,-1.87
2022-12-19T02:08:24.865Z,-1.81
2022-12-19T02:09:27.770Z,-1.81
2022-12-19T02:10:25.037Z,-1.86
2022-12-19T02:11:24.840Z,-1.89
2022-12-19T02:12:25.513Z,-1.84
2022-12-19T02:13:24.833Z,-1.86
2022-12-19T02:14:24.823Z,-1.89
2022-12-19T02:15:24.812Z,-1.82
2022-12-19T02:16:31.327Z,-1.93
2022-12-19T02:17:24.848Z,-1.84
2022-12-19T02:18:24.835Z,-1.79
2022-12-19T02:19:24.826Z,-1.86
2022-12-19T02:20:30.256Z,-1.82
2022-12-19T02:21:24.838Z,-1.84
2022-12-19T02:22:24.848Z,-1.82
2022-12-19T02:23:24.858Z,-1.82
2022-12-19T02:24:24.855Z,-1.9
2022-12-19T02:25:24.966Z,-1.86
2022-12-19T02:26:25.114Z,-1.99
2022-12-19T02:27:24.895Z,-1.93
2022-12-19T02:28:25.134Z,-1.93
2022-12-19T02:29:24.855Z,-1.89
2022-12-19T02:30:24.871Z,-1.89
2022-12-19T02:31:25.061Z,-1.9
2022-12-19T02:32:24.893Z,-1.96
2022-12-19T02:33:24.885Z,-2.02
2022-12-19T02:34:24.859Z,-1.93
2022-12-19T02:35:24.925Z,-2.05
2022-12-19T02:36:24.867Z,-1.99
2022-12-19T02:37:26.556Z,-1.89
2022-12-19T02:38:24.877Z,-1.82
2022-12-19T02:39:24.891Z,-1.92
2022-12-19T02:40:24.869Z,-1.96
2022-12-19T02:41:24.906Z,-1.89
2022-12-19T02:42:28.795Z,-1.94
2022-12-19T02:43:24.903Z,-1.87
2022-12-19T02:44:24.877Z,-1.97
2022-12-19T02:45:32.898Z,-1.89
2022-12-19T02:46:25.069Z,-1.9
2022-12-19T02:47:24.932Z,-1.78
2022-12-19T02:48:24.880Z,-1.87
2022-12-19T02:49:35.311Z,-1.78
2022-12-19T02:50:24.892Z,-1.93
2022-12-19T02:51:24.912Z,-1.84
2022-12-19T02:52:28.048Z,-1.79
2022-12-19T02:53:28.652Z,-1.76
2022-12-19T02:54:24.903Z,-1.79
2022-12-19T02:55:24.900Z,-1.86
2022-12-19T02:56:24.930Z,-1.84
2022-12-19T02:57:26.692Z,-1.86
2022-12-19T02:58:25.143Z,-1.93
2022-12-19T02:59:24.911Z,-1.9
2022-12-19T03:00:24.803Z,-1.79
2022-12-19T03:01:27.124Z,-1.82
2022-12-19T03:02:25.682Z,-1.71
2022-12-19T03:03:28.108Z,-1.84
2022-12-19T03:04:24.938Z,-1.87
2022-12-19T03:05:24.951Z,-1.76
2022-12-19T03:06:24.947Z,-1.84
2022-12-19T03:07:25.073Z,-1.87
2022-12-19T03:08:24.936Z,-1.82
2022-12-19T03:09:24.925Z,-1.9
2022-12-19T03:10:24.932Z,-1.79
2022-12-19T03:11:24.936Z,-1.84
2022-12-19T03:12:24.981Z,-1.86
2022-12-19T03:13:25.065Z,-1.74
2022-12-19T03:14:28.199Z,-1.75
2022-12-19T03:15:24.944Z,-1.76
2022-12-19T03:16:25.154Z,-1.82
2022-12-19T03:17:24.982Z,-1.75
2022-12-19T03:18:24.954Z,-1.63
2022-12-19T03:19:28.003Z,-1.63
2022-12-19T03:20:24.966Z,-1.72
2022-12-19T03:21:25.004Z,-1.75
2022-12-19T03:22:24.985Z,-1.69
2022-12-19T03:23:24.943Z,-1.75
2022-12-19T03:24:25.237Z,-1.72
2022-12-19T03:25:27.812Z,-1.74
2022-12-19T03:26:24.976Z,-1.76
2022-12-19T03:27:24.987Z,-1.64
2022-12-19T03:28:24.981Z,-1.68
2022-12-19T03:29:25.116Z,-1.71
2022-12-19T03:30:28.038Z,-1.72
2022-12-19T03:31:25.112Z,-1.63
2022-12-19T03:32:25.492Z,-1.76
2022-12-19T03:33:24.991Z,-1.69
2022-12-19T03:34:25.144Z,-1.6
2022-12-19T03:35:25.115Z,-1.64
2022-12-19T03:36:27.786Z,-1.61
2022-12-19T03:37:25.037Z,-1.6
2022-12-19T03:38:24.985Z,-1.54
2022-12-19T03:39:24.981Z,-1.63
2022-12-19T03:40:25.342Z,-1.51
2022-12-19T03:41:27.960Z,-1.57
2022-12-19T03:42:25.048Z,-1.6
2022-12-19T03:43:25.278Z,-1.63
2022-12-19T03:44:25.247Z,-1.6
2022-12-19T03:45:25.630Z,-1.51
2022-12-19T03:46:25.404Z,-1.57
2022-12-19T03:47:25.057Z,-1.58
2022-12-19T03:48:25.047Z,-1.54
2022-12-19T03:49:25.017Z,-1.57
2022-12-19T03:50:25.058Z,-1.58
2022-12-19T03:51:25.022Z,-1.51
2022-12-19T03:52:26.865Z,-1.64
2022-12-19T03:53:25.003Z,-1.57
2022-12-19T03:54:25.019Z,-1.53
2022-12-19T03:55:25.025Z,-1.39
2022-12-19T03:56:25.007Z,-1.5
2022-12-19T03:57:25.045Z,-1.58
2022-12-19T03:58:25.069Z,-1.48
2022-12-19T03:59:25.050Z,-1.54
2022-12-19T04:00:25.031Z,-1.45
2022-12-19T04:01:25.500Z,-1.39
2022-12-19T04:02:25.776Z,-1.39
2022-12-19T04:03:28.277Z,-1.33
2022-12-19T04:04:25.036Z,-1.36
2022-12-19T04:05:25.027Z,-1.36
2022-12-19T04:06:25.044Z,-1.48
2022-12-19T04:07:25.053Z,-1.38
2022-12-19T04:08:25.031Z,-1.4
2022-12-19T04:09:30.276Z,-1.39
2022-12-19T04:10:25.038Z,-1.45
2022-12-19T04:11:25.030Z,-1.38
2022-12-19T04:12:25.088Z,-1.3
2022-12-19T04:13:25.054Z,-1.29
2022-12-19T04:14:28.819Z,-1.33
2022-12-19T04:15:25.069Z,-1.25
2022-12-19T04:16:25.227Z,-1.29
2022-12-19T04:17:25.207Z,-1.35
2022-12-19T04:18:25.312Z,-1.38
2022-12-19T04:19:25.064Z,-1.3
2022-12-19T04:20:25.093Z,-1.32
2022-12-19T04:21:25.039Z,-1.33
2022-12-19T04:22:25.085Z,-1.24
2022-12-19T04:23:25.065Z,-1.27
2022-12-19T04:24:25.072Z,-1.29
2022-12-19T04:25:31.813Z,-1.35
2022-12-19T04:26:25.068Z,-1.29
2022-12-19T04:27:25.134Z,-1.35
2022-12-19T04:28:25.080Z,-1.22
2022-12-19T04:29:25.073Z,-1.24
2022-12-19T04:30:25.130Z,-1.3
2022-12-19T04:31:25.190Z,-1.29
2022-12-19T04:32:25.099Z,-1.21
2022-12-19T04:33:25.208Z,-1.21
2022-12-19T04:34:25.851Z,-1.3
2022-12-19T04:35:25.102Z,-1.24
2022-12-19T04:36:27.858Z,-1.33
2022-12-19T04:37:25.094Z,-1.22
2022-12-19T04:38:25.097Z,-1.27
2022-12-19T04:39:27.085Z,-1.27
2022-12-19T04:40:25.094Z,-1.27
2022-12-19T04:41:25.133Z,-1.32
2022-12-19T04:42:25.109Z,-1.22
2022-12-19T04:43:25.099Z,-1.22
2022-12-19T04:44:25.149Z,-1.24
2022-12-19T04:45:28.085Z,-1.15
2022-12-19T04:46:25.236Z,-1.07
2022-12-19T04:47:28.626Z,-1.18
2022-12-19T04:48:25.120Z,-1.21
2022-12-19T04:49:26.653Z,-1.15
2022-12-19T04:50:25.353Z,-1.27
2022-12-19T04:51:25.118Z,-1.21
2022-12-19T04:52:25.138Z,-1.12
2022-12-19T04:53:25.122Z,-1.15
2022-12-19T04:54:25.132Z,-1.18
2022-12-19T04:55:25.091Z,-1.27
2022-12-19T04:56:25.106Z,-1.18
2022-12-19T04:57:25.128Z,-1.18
2022-12-19T04:58:26.757Z,-1.27
2022-12-19T04:59:25.134Z,-1.22
2022-12-19T05:00:25.113Z,-1.22
2022-12-19T05:01:25.562Z,-1.29
2022-12-19T05:02:25.780Z,-1.3
2022-12-19T05:03:25.316Z,-1.24
2022-12-19T05:04:25.144Z,-1.29
2022-12-19T05:05:25.242Z,-1.25
2022-12-19T05:06:25.365Z,-1.22
2022-12-19T05:07:25.138Z,-1.22
2022-12-19T05:08:25.159Z,-1.27
2022-12-19T05:09:25.512Z,-1.18
2022-12-19T05:10:25.140Z,-1.3
2022-12-19T05:11:25.110Z,-1.33
2022-12-19T05:12:25.177Z,-1.27
2022-12-19T05:13:25.140Z,-1.3
2022-12-19T05:14:25.141Z,-1.35
2022-12-19T05:15:25.139Z,-1.24
2022-12-19T05:16:25.382Z,-1.19
2022-12-19T05:17:25.159Z,-1.15
2022-12-19T05:18:25.156Z,-1.24
2022-12-19T05:19:27.908Z,-1.27
2022-12-19T05:20:25.144Z,-1.25
2022-12-19T05:21:25.296Z,-1.24
2022-12-19T05:22:25.423Z,-1.19
2022-12-19T05:23:25.151Z,-1.32
2022-12-19T05:24:25.141Z,-1.22
2022-12-19T05:25:25.174Z,-1.19
2022-12-19T05:26:25.162Z,-1.19
2022-12-19T05:27:25.178Z,-1.11
2022-12-19T05:28:25.179Z,-1.15
2022-12-19T05:35:35.084Z,-1.01
2022-12-19T05:36:32.534Z,-1.11
2022-12-19T05:37:25.312Z,-0.96
2022-12-19T05:38:25.408Z,-1.07
2022-12-19T05:39:28.479Z,-1.03
2022-12-19T05:40:26.771Z,-0.99
2022-12-19T05:41:25.173Z,-0.93
2022-12-19T05:42:25.155Z,-0.87
2022-12-19T05:43:25.200Z,-1.03
2022-12-19T05:44:25.174Z,-0.94
2022-12-19T05:45:28.217Z,-1.01
2022-12-19T05:46:25.402Z,-0.84
2022-12-19T05:47:25.201Z,-0.85
2022-12-19T05:48:25.196Z,-0.97
2022-12-19T05:49:26.967Z,-0.94
2022-12-19T05:50:25.220Z,-0.97
2022-12-19T05:51:25.239Z,-0.94
2022-12-19T05:52:25.467Z,-0.93
2022-12-19T05:53:30.540Z,-0.99
2022-12-19T05:54:25.324Z,-0.87
2022-12-19T05:55:25.219Z,-0.93
2022-12-19T05:56:25.232Z,-1.06
2022-12-19T05:57:25.188Z,-0.99
2022-12-19T05:58:25.204Z,-0.97
2022-12-19T05:59:25.212Z,-0.96
2022-12-19T06:00:25.190Z,-0.97
2022-12-19T06:01:25.466Z,-0.96
2022-12-19T06:02:28.393Z,-0.91
2022-12-19T06:03:25.506Z,-1.01
2022-12-19T06:04:25.222Z,-0.81
2022-12-19T06:05:25.243Z,-0.93
2022-12-19T06:06:25.369Z,-0.8
2022-12-19T06:07:25.987Z,-0.85
2022-12-19T06:08:25.364Z,-0.87
2022-12-19T06:09:26.740Z,-0.8
2022-12-19T06:10:25.351Z,-0.8
2022-12-19T06:11:25.262Z,-0.75
2022-12-19T06:12:25.289Z,-0.8
2022-12-19T06:13:29.581Z,-0.81
2022-12-19T06:14:25.824Z,-0.7
2022-12-19T06:15:25.231Z,-0.77
2022-12-19T06:16:25.499Z,-0.66
2022-12-19T06:17:25.240Z,-0.75
2022-12-19T06:18:25.268Z,-0.8
2022-12-19T06:19:25.613Z,-0.75
2022-12-19T06:20:25.261Z,-0.91
2022-12-19T06:21:25.318Z,-0.78
2022-12-19T06:22:25.227Z,-0.81
2022-12-19T06:23:25.255Z,-0.91
2022-12-19T06:24:25.360Z,-0.84
2022-12-19T06:25:25.280Z,-0.8
2022-12-19T06:26:25.431Z,-0.99
2022-12-19T06:27:25.224Z,-0.81
2022-12-19T06:28:28.005Z,-0.89
2022-12-19T06:29:25.378Z,-0.84
2022-12-19T06:30:25.249Z,-0.82
2022-12-19T06:31:25.577Z,-0.85
2022-12-19T06:32:25.245Z,-0.82
2022-12-19T06:33:25.280Z,-0.84
2022-12-19T06:35:07.490Z,-0.78
2022-12-19T06:35:25.272Z,-0.8
2022-12-19T06:36:25.302Z,-0.93
2022-12-19T06:37:25.270Z,-0.94
2022-12-19T06:38:25.286Z,-0.78
2022-12-19T06:39:28.511Z,-0.85
2022-12-19T06:40:25.278Z,-0.84
2022-12-19T06:41:25.432Z,-0.81
2022-12-19T06:42:25.450Z,-0.82
2022-12-19T06:43:25.273Z,-0.82
2022-12-19T06:44:28.326Z,-0.8
2022-12-19T06:45:25.336Z,-0.8
2022-12-19T06:46:25.484Z,-0.89
2022-12-19T06:47:25.279Z,-0.77
2022-12-19T06:48:25.272Z,-0.72
2022-12-19T06:49:25.274Z,-0.78
2022-12-19T06:50:28.186Z,-0.78
2022-12-19T06:51:25.325Z,-0.75
2022-12-19T06:52:25.300Z,-0.69
2022-12-19T06:53:25.649Z,-0.69
2022-12-19T06:54:28.281Z,-0.64
2022-12-19T06:55:28.239Z,-0.66
2022-12-19T06:56:25.553Z,-0.62
2022-12-19T06:57:25.460Z,-0.62
2022-12-19T06:58:28.894Z,-0.59
2022-12-19T06:59:25.304Z,-0.62
2022-12-19T07:00:25.299Z,-0.63
2022-12-19T07:01:28.801Z,-0.66
2022-12-19T07:02:25.696Z,-0.63
2022-12-19T07:03:25.307Z,-0.63
2022-12-19T07:04:25.364Z,-0.63
2022-12-19T07:05:25.494Z,-0.6
2022-12-19T07:06:26.993Z,-0.62
2022-12-19T07:07:25.322Z,-0.57
2022-12-19T07:08:25.320Z,-0.66
2022-12-19T07:09:25.322Z,-0.64
2022-12-19T07:10:25.478Z,-0.46
2022-12-19T07:11:25.370Z,-0.57
2022-12-19T07:12:25.312Z,-0.51
2022-12-19T07:13:25.447Z,-0.53
2022-12-19T07:14:25.509Z,-0.54
2022-12-19T07:15:25.310Z,-0.53
2022-12-19T07:16:25.572Z,-0.54
2022-12-19T07:17:28.359Z,-0.51
2022-12-19T07:18:25.330Z,-0.51
2022-12-19T07:19:25.330Z,-0.57
2022-12-19T07:20:25.324Z,-0.48
2022-12-19T07:21:25.370Z,-0.45
2022-12-19T07:22:25.336Z,-0.51
2022-12-19T07:23:25.324Z,-0.57
2022-12-19T07:24:25.333Z,-0.46
2022-12-19T07:25:25.345Z,-0.56
2022-12-19T07:26:25.404Z,-0.54
2022-12-19T07:27:28.531Z,-0.56
2022-12-19T07:28:28.510Z,-0.48
2022-12-19T07:29:25.336Z,-0.48
2022-12-19T07:30:25.471Z,-0.51
2022-12-19T07:31:25.501Z,-0.48
2022-12-19T07:32:25.326Z,-0.46
2022-12-19T07:33:26.674Z,-0.51
2022-12-19T07:34:25.354Z,-0.42
2022-12-19T07:35:25.358Z,-0.42
2022-12-19T07:36:25.378Z,-0.46
2022-12-19T07:37:25.339Z,-0.45
2022-12-19T07:38:25.351Z,-0.44
2022-12-19T07:39:28.487Z,-0.46
2022-12-19T07:40:25.347Z,-0.48
2022-12-19T07:41:25.370Z,-0.38
2022-12-19T07:42:29.395Z,-0.45
2022-12-19T07:43:25.481Z,-0.49
2022-12-19T07:44:25.495Z,-0.49
2022-12-19T07:45:25.361Z,-0.46
2022-12-19T07:46:25.635Z,-0.41
2022-12-19T07:47:25.366Z,-0.45
2022-12-19T07:48:25.364Z,-0.45
2022-12-19T07:49:27.469Z,-0.39
2022-12-19T07:50:28.159Z,-0.39
2022-12-19T07:51:25.422Z,-0.3
2022-12-19T07:52:25.406Z,-0.38
2022-12-19T07:53:25.353Z,-0.3
2022-12-19T07:54:25.391Z,-0.3
2022-12-19T07:55:25.387Z,-0.26
2022-12-19T07:56:26.122Z,-0.33
2022-12-19T07:57:25.381Z,-0.38
2022-12-19T07:58:25.372Z,-0.35
2022-12-19T07:59:39.351Z,-0.31
2022-12-19T08:00:25.488Z,-0.27
2022-12-19T08:01:30.771Z,-0.26
2022-12-19T08:02:26.052Z,-0.27
2022-12-19T08:03:26.888Z,-0.28
2022-12-19T08:04:25.381Z,-0.31
2022-12-19T08:05:25.409Z,-0.26
2022-12-19T08:06:25.447Z,-0.24
2022-12-19T08:07:25.406Z,-0.23
2022-12-19T08:08:25.417Z,-0.27
2022-12-19T08:09:25.420Z,-0.28
2022-12-19T08:10:25.385Z,-0.28
2022-12-19T08:11:25.432Z,-0.21
2022-12-19T08:12:28.546Z,-0.23
2022-12-19T08:13:25.405Z,-0.23
2022-12-19T08:14:25.415Z,-0.13
2022-12-19T08:15:25.652Z,-0.1
2022-12-19T08:16:25.538Z,-0.18
2022-12-19T08:17:26.296Z,-0.09
2022-12-19T08:18:25.508Z,-0.13
2022-12-19T08:19:31.686Z,-0.07
2022-12-19T08:20:25.426Z,-0.12
2022-12-19T08:21:27.270Z,-0.15
2022-12-19T08:22:25.448Z,-0.06
2022-12-19T08:23:25.439Z,0.01
2022-12-19T08:24:25.420Z,0
2022-12-19T08:25:25.421Z,-0.02
2022-12-19T08:26:25.610Z,0.09
2022-12-19T08:27:25.456Z,0.08
2022-12-19T08:28:25.583Z,0.15
2022-12-19T08:29:25.654Z,0.12
2022-12-19T08:30:25.926Z,0.15
2022-12-19T08:31:27.676Z,0.02
2022-12-19T08:32:26.513Z,0.15
2022-12-19T08:33:25.422Z,0.12
2022-12-19T08:34:25.597Z,0
2022-12-19T08:35:25.434Z,0.19
2022-12-19T08:36:25.438Z,0.16
2022-12-19T08:37:25.446Z,0.13
2022-12-19T08:38:25.477Z,0.09
2022-12-19T08:39:25.498Z,0.09
2022-12-19T08:40:25.461Z,0.16
2022-12-19T08:41:25.463Z,0.19
2022-12-19T08:42:25.468Z,0.18
2022-12-19T08:43:25.486Z,0.12
2022-12-19T08:44:25.470Z,0.23
2022-12-19T08:45:25.489Z,0.26
2022-12-19T08:46:25.782Z,0.26
2022-12-19T08:47:25.699Z,0.3
2022-12-19T08:48:25.448Z,0.88
2022-12-19T08:49:25.469Z,0.67
2022-12-19T08:50:25.672Z,0.99
2022-12-19T08:51:25.478Z,0.71
2022-12-19T08:52:25.463Z,0.64
2022-12-19T08:53:30.924Z,0.48
2022-12-19T08:54:25.501Z,0.47
2022-12-19T08:55:33.435Z,0.33
2022-12-19T08:56:25.513Z,0.34
2022-12-19T08:57:25.473Z,0.47
2022-12-19T08:58:25.508Z,0.58
2022-12-19T08:59:36.273Z,0.59
2022-12-19T09:00:33.384Z,0.45
2022-12-19T09:01:25.842Z,0.48
2022-12-19T09:02:25.971Z,0.45
2022-12-19T09:03:38.294Z,0.55
2022-12-19T09:06:23.358Z,0.45
2022-12-19T09:07:17.713Z,0.51
2022-12-19T09:08:14.086Z,0.52
2022-12-19T09:09:14.155Z,0.52
2022-12-19T09:10:13.953Z,0.59
2022-12-19T09:11:14.139Z,0.55
2022-12-19T09:12:14.172Z,0.56
2022-12-19T09:13:14.116Z,0.61
2022-12-19T09:14:21.122Z,0.61
2022-12-19T09:15:14.143Z,0.67
2022-12-19T09:16:16.983Z,0.59
2022-12-19T09:17:14.568Z,0.73
2022-12-19T09:18:14.138Z,0.76
2022-12-19T09:19:14.372Z,0.68
2022-12-19T09:20:18.231Z,0.7
2022-12-19T09:21:14.161Z,0.84
2022-12-19T09:22:14.334Z,0.74
2022-12-19T09:23:14.145Z,0.76
2022-12-19T09:24:14.180Z,0.76
2022-12-19T09:25:14.143Z,0.68
2022-12-19T09:26:14.123Z,0.77
2022-12-19T09:27:17.243Z,0.77
2022-12-19T09:28:44.149Z,0.77
2022-12-19T09:29:25.453Z,0.88
2022-12-19T09:30:14.164Z,0.84
2022-12-19T09:31:14.369Z,0.81
2022-12-19T09:32:16.219Z,0.92
2022-12-19T09:33:14.516Z,0.89
2022-12-19T09:34:14.147Z,0.92
2022-12-19T09:35:16.012Z,0.99
2022-12-19T09:36:14.535Z,1.02
2022-12-19T09:37:20.806Z,0.92
2022-12-19T09:38:17.003Z,0.89
2022-12-19T09:39:14.162Z,1.02
2022-12-19T09:40:14.161Z,0.99
2022-12-19T09:41:18.095Z,1.04
2022-12-19T09:42:14.147Z,0.94
2022-12-19T09:43:17.204Z,0.99
2022-12-19T09:44:14.158Z,1.03
2022-12-19T09:45:36.537Z,1.03
2022-12-19T09:46:14.346Z,1.16
2022-12-19T09:47:14.174Z,1.21
2022-12-19T09:48:26.709Z,1.12
2022-12-19T09:49:14.169Z,1.22
2022-12-19T09:50:14.200Z,1.1
2022-12-19T09:51:16.086Z,1.13
2022-12-19T09:52:14.198Z,1.14
2022-12-19T09:53:14.168Z,1.22
2022-12-19T09:54:18.123Z,1.1
2022-12-19T09:55:19.592Z,1.13
2022-12-19T09:56:14.188Z,1.2
2022-12-19T09:57:14.184Z,1.22
2022-12-19T09:58:14.189Z,1.28
2022-12-19T09:59:14.197Z,1.31
2022-12-19T10:00:14.210Z,1.25
2022-12-19T10:01:14.421Z,1.22
2022-12-19T10:02:17.539Z,1.28
2022-12-19T10:03:14.841Z,1.39
2022-12-19T10:04:14.216Z,1.28
2022-12-19T10:07:33.058Z,1.42
2022-12-19T10:08:18.253Z,1.38
2022-12-19T10:12:50.918Z,1.58
2022-12-19T10:13:19.810Z,1.56
2022-12-19T10:14:17.684Z,1.63
2022-12-19T10:15:15.958Z,1.6
2022-12-19T10:16:18.903Z,1.68
2022-12-19T10:17:31.395Z,1.67
2022-12-19T10:18:15.970Z,1.82
2022-12-19T10:19:15.981Z,1.78
2022-12-19T10:20:15.953Z,1.85
2022-12-19T10:21:15.960Z,1.88
2022-12-19T10:22:24.321Z,1.88
2022-12-19T10:23:15.981Z,1.93
2022-12-19T10:24:16.084Z,1.97
2022-12-19T10:25:18.460Z,2.05
2022-12-19T10:26:15.971Z,2.07
2022-12-19T10:27:18.713Z,2.1
2022-12-19T10:28:16.028Z,2.16
2022-12-19T10:29:17.999Z,2.22
2022-12-19T10:30:16.076Z,2.21
2022-12-19T10:31:25.137Z,2.19
2022-12-19T10:32:16.208Z,2.08
2022-12-19T10:33:24.955Z,2.21
2022-12-19T10:34:16.041Z,2.18
2022-12-19T10:35:15.979Z,2.25
2022-12-19T10:36:16.652Z,2.26
2022-12-19T10:37:49.050Z,2.16
2022-12-19T10:38:19.075Z,2.07
2022-12-19T10:39:15.987Z,2.1
2022-12-19T10:40:33.718Z,2.12
2022-12-19T10:41:15.985Z,2.32
2022-12-19T10:42:16.001Z,2.33
2022-12-19T10:43:39.321Z,2.32
2022-12-19T10:44:16.031Z,2.33
2022-12-19T10:45:16.157Z,2.25
2022-12-19T10:46:16.406Z,2.18
2022-12-19T10:47:16.092Z,2.22
2022-12-19T10:48:15.993Z,2.21
2022-12-19T10:49:18.911Z,2.18
2022-12-19T10:50:16.023Z,2.14
2022-12-19T10:51:16.274Z,2.15
2022-12-19T10:52:19.147Z,2.1
2022-12-19T10:53:16.168Z,2.19
2022-12-19T10:54:16.101Z,2.16
2022-12-19T10:55:16.934Z,2.22
2022-12-19T10:56:16.124Z,2.23
2022-12-19T10:57:16.064Z,2.19
2022-12-19T10:58:17.043Z,2.26
2022-12-19T10:59:17.423Z,2.16
2022-12-19T11:00:18.872Z,2.25
2022-12-19T11:01:16.484Z,2.14
2022-12-19T11:02:16.686Z,2.14
2022-12-19T11:03:21.479Z,2.16
2022-12-19T11:04:16.127Z,2.19
2022-12-19T11:05:16.289Z,2.14
2022-12-19T11:06:16.050Z,2.16
2022-12-19T11:07:20.640Z,2.23
2022-12-19T11:08:16.149Z,2.21
2022-12-19T11:09:16.193Z,2.25
2022-12-19T11:17:10.603Z,2.26
2022-12-19T11:32:47.749Z,2.59
2022-12-19T11:33:01.001Z,2.54
2022-12-19T11:34:00.144Z,2.41
2022-12-19T11:35:00.046Z,2.54
2022-12-19T11:36:00.103Z,2.5
2022-12-19T11:37:02.892Z,2.51
2022-12-19T11:38:00.673Z,2.57
2022-12-19T11:39:00.053Z,2.59
2022-12-19T11:40:00.033Z,2.59
2022-12-19T11:41:00.097Z,2.65
2022-12-19T11:42:00.446Z,2.69
2022-12-19T11:43:47.767Z,2.75
2022-12-19T11:44:00.090Z,2.7
2022-12-19T11:45:00.052Z,2.72
2022-12-19T11:46:00.054Z,2.76
2022-12-19T11:47:02.002Z,2.82
2022-12-19T11:48:04.396Z,2.9
2022-12-19T11:49:00.110Z,2.8
2022-12-19T11:50:00.093Z,2.85
2022-12-19T11:51:02.117Z,2.87
2022-12-19T11:52:00.098Z,2.91
2022-12-19T11:53:19.273Z,2.9
2022-12-19T11:54:00.092Z,2.85
2022-12-19T11:55:00.088Z,2.9
2022-12-19T11:56:00.113Z,2.85
2022-12-19T11:57:00.183Z,2.8
2022-12-19T11:58:00.118Z,2.93
2022-12-19T11:59:00.107Z,3.01
2022-12-19T12:00:08.320Z,2.94
2022-12-19T12:01:00.114Z,2.93
2022-12-19T12:02:00.298Z,2.9
2022-12-19T12:03:00.412Z,2.98
2022-12-19T12:04:10.939Z,2.91
2022-12-19T12:05:00.312Z,3
2022-12-19T12:06:00.102Z,2.93
2022-12-19T12:07:06.769Z,3.01
2022-12-19T12:38:29.771Z,3.11
2022-12-19T12:38:52.128Z,3.16
2022-12-19T12:39:51.209Z,3.13
2022-12-19T12:40:53.929Z,3.08
2022-12-19T12:41:51.161Z,3.09
2022-12-19T12:42:51.187Z,3.03
2022-12-19T12:43:51.227Z,3.13
2022-12-19T12:44:51.201Z,3.15
2022-12-19T12:45:52.291Z,3.08
2022-12-19T12:46:51.170Z,3.26
2022-12-19T12:47:51.260Z,3.13
2022-12-19T12:48:51.276Z,3.19
2022-12-19T12:49:51.182Z,3.24
2022-12-19T12:50:59.189Z,3.18
2022-12-19T12:51:54.244Z,3.29
2022-12-19T12:52:51.212Z,3.4
2022-12-19T12:53:51.205Z,3.29
2022-12-19T12:54:51.331Z,3.3
2022-12-19T12:55:51.207Z,3.29
2022-12-19T12:56:51.172Z,3.06
2022-12-19T12:57:51.302Z,3.13
2022-12-19T12:58:54.634Z,3.27
2022-12-19T12:59:51.211Z,3.09
2022-12-19T13:00:51.399Z,3.03
2022-12-19T13:01:51.676Z,3.12
2022-12-19T13:02:54.836Z,3.11
2022-12-19T13:03:51.243Z,2.98
2022-12-19T13:04:56.855Z,3.03
2022-12-19T13:05:51.204Z,3.03
2022-12-19T13:06:51.199Z,3
2022-12-19T13:07:51.235Z,3.03
2022-12-19T13:08:51.223Z,3.15
2022-12-19T13:09:51.247Z,3.12
2022-12-19T13:10:51.212Z,3.13
2022-12-19T13:11:51.225Z,3.19
2022-12-19T13:12:51.275Z,3.19
2022-12-19T13:13:53.976Z,3.19
2022-12-19T13:14:51.225Z,3.26
2022-12-19T13:15:51.352Z,3.19
2022-12-19T13:16:51.540Z,3.18
2022-12-19T13:17:52.311Z,3.21
2022-12-19T13:18:54.359Z,3.3
2022-12-19T13:19:51.204Z,3.24
2022-12-19T13:20:51.246Z,3.19
2022-12-19T13:21:51.221Z,3.3
2022-12-19T13:22:51.652Z,3.46
2022-12-19T13:23:51.264Z,3.4
2022-12-19T13:24:54.292Z,3.37
2022-12-19T13:25:51.277Z,3.33
2022-12-19T13:26:52.560Z,3.45
2022-12-19T13:27:51.672Z,3.41
2022-12-19T13:28:51.236Z,3.31
2022-12-19T13:29:54.257Z,3.37
2022-12-19T13:31:25.721Z,3.49
2022-12-19T13:31:51.421Z,3.45
2022-12-19T13:32:51.327Z,3.5
2022-12-19T13:33:51.298Z,3.55
2022-12-19T13:35:32.644Z,3.52
2022-12-19T13:40:32.613Z,3.59
2022-12-19T13:41:19.133Z,3.63
2022-12-19T13:42:19.175Z,3.63
2022-12-19T13:43:19.325Z,3.61
2022-12-19T13:44:19.117Z,3.63
2022-12-19T13:45:19.120Z,3.59
2022-12-19T13:46:19.609Z,3.63
2022-12-19T13:47:26.412Z,3.68
2022-12-19T13:48:19.178Z,3.61
2022-12-19T13:49:19.165Z,3.59
2022-12-19T13:50:19.181Z,3.53
2022-12-19T13:51:19.140Z,3.63
2022-12-19T13:52:19.112Z,3.63
2022-12-19T13:53:20.203Z,3.55
2022-12-19T13:54:22.257Z,3.7
2022-12-19T13:55:19.157Z,3.66
2022-12-19T13:56:19.172Z,3.59
2022-12-19T13:57:19.255Z,3.68
2022-12-19T13:58:21.236Z,3.53
2022-12-19T13:59:19.194Z,3.59
2022-12-19T14:00:19.181Z,3.55
2022-12-19T14:01:26.139Z,3.56
2022-12-19T14:02:20.014Z,3.66
2022-12-19T14:03:19.908Z,3.66
2022-12-19T14:04:19.421Z,3.63
2022-12-19T14:05:48.530Z,3.53
2022-12-19T14:06:27.547Z,3.59
2022-12-19T14:07:43.983Z,3.5
2022-12-19T14:08:27.473Z,3.58
2022-12-19T14:14:01.670Z,3.52
2022-12-19T14:14:33.116Z,3.49
2022-12-19T14:15:28.571Z,3.55
2022-12-19T14:16:49.801Z,3.52